Time,TemperatureF,DewpointF,PressureIn,WindDirection,WindDirectionDegrees,WindSpeedMPH,WindSpeedGustMPH,Humidity,HourlyPrecipIn,Conditions,Clouds,dailyrainin,SolarRadiationWatts/m^2,SoftwareType,DateUTC
2013-10-23 00:01:00,39.7,35.0,29.88,SSE,158,0.0,0.0,83,0.00,RA,,0.00,0.0,WeatherDisplay:10.37,2013-10-23 04:01:00,
2013-10-23 00:02:00,39.7,35.0,29.88,SSW,202,0.0,0.0,83,0.00,RA,,0.00,0.0,WeatherDisplay:10.37,2013-10-23 04:02:00,
2013-10-23 00:07:00,39.7,34.7,29.88,SSW,202,0.0,0.0,82,0.00,RA,,0.00,0.0,WeatherDisplay:10.37,2013-10-23 04:07:00,
2013-10-23 00:12:00,39.7,34.7,29.88,SSW,202,0.0,0.0,82,0.00,CLR,,0.00,0.0,WeatherDisplay:10.37,2013-10-23 04:12:00,
2013-10-23 00:17:00,39.6,34.5,29.88,WNW,292,0.0,0.0,82,0.00,CLR,,0.00,0.0,WeatherDisplay:10.37,2013-10-23 04:17:00,
2013-10-23 00:22:00,39.6,34.5,29.88,WSW,248,2.0,0.0,82,0.00,CLR,,0.00,0.0,WeatherDisplay:10.37,2013-10-23 04:22:00,
2013-10-23 00:27:00,39.6,34.8,29.88,SSW,202,0.0,0.0,83,0.00,CLR,,0.00,0.0,WeatherDisplay:10.37,2013-10-23 04:27:00,
2013-10-23 00:32:00,39.6,34.8,29.88,SSE,158,2.3,2.3,83,0.04,RA,,0.04,0.0,WeatherDisplay:10.37,2013-10-23 04:32:00,
2013-10-23 00:37:00,39.6,35.4,29.88,SSW,202,0.0,0.0,85,0.04,RA,,0.04,0.0,WeatherDisplay:10.37,2013-10-23 04:37:00,
2013-10-23 00:42:00,39.6,35.4,29.88,SSW,202,2.3,2.3,85,0.04,,,0.04,0.0,WeatherDisplay:10.37,2013-10-23 04:42:00,
2013-10-23 00:47:00,39.6,35.4,29.88,WSW,248,0.0,0.0,85,0.04,CLR,,0.04,0.0,WeatherDisplay:10.37,2013-10-23 04:47:00,
2013-10-23 00:52:00,39.6,35.1,29.88,WSW,248,0.0,0.0,84,0.04,CLR,,0.04,0.0,WeatherDisplay:10.37,2013-10-23 04:52:00,
2013-10-23 00:57:00,39.4,34.6,29.88,NNW,338,1.6,1.6,83,0.04,CLR,,0.04,0.0,WeatherDisplay:10.37,2013-10-23 04:57:00,
2013-10-23 01:02:00,39.4,34.6,29.85,NNW,338,2.3,2.3,83,0.04,CLR,,0.04,0.0,WeatherDisplay:10.37,2013-10-23 05:02:00,
2013-10-23 01:07:00,39.2,34.2,29.85,NNE,22,0.0,0.0,82,0.04,CLR,,0.04,0.0,WeatherDisplay:10.37,2013-10-23 05:07:00,
2013-10-23 01:12:00,39.2,34.2,29.85,NNW,338,1.2,0.0,82,0.04,CLR,,0.04,0.0,WeatherDisplay:10.37,2013-10-23 05:12:00,
2013-10-23 01:17:00,39.2,34.2,29.85,NNE,22,0.0,0.0,82,0.04,CLR,,0.04,0.0,WeatherDisplay:10.37,2013-10-23 05:17:00,
2013-10-23 01:22:00,39.2,34.5,29.85,NNE,22,0.0,0.0,83,0.04,CLR,,0.04,0.0,WeatherDisplay:10.37,2013-10-23 05:22:00,
2013-10-23 01:27:00,39.2,34.8,29.85,ENE,68,0.0,0.0,84,0.04,CLR,,0.04,0.0,WeatherDisplay:10.37,2013-10-23 05:27:00,
2013-10-23 01:32:00,39.2,35.4,29.85,NE,45,0.0,0.0,86,0.00,CLR,,0.04,0.0,WeatherDisplay:10.37,2013-10-23 05:32:00,
2013-10-23 01:37:00,39.2,35.7,29.85,ESE,112,1.2,0.0,87,0.00,CLR,,0.04,0.0,WeatherDisplay:10.37,2013-10-23 05:37:00,
2013-10-23 01:42:00,39.2,35.9,29.85,ENE,68,1.2,1.2,88,0.00,CLR,,0.04,0.0,WeatherDisplay:10.37,2013-10-23 05:42:00,
2013-10-23 01:47:00,39.2,35.9,29.85,ENE,68,2.3,2.3,88,0.00,CLR,,0.04,0.0,WeatherDisplay:10.37,2013-10-23 05:47:00,
2013-10-23 01:52:00,39.2,35.9,29.85,ENE,68,2.3,2.3,88,0.00,CLR,,0.04,0.0,WeatherDisplay:10.37,2013-10-23 05:52:00,
2013-10-23 01:57:00,39.2,35.9,29.85,SSE,158,2.3,0.0,88,0.00,CLR,,0.04,0.0,WeatherDisplay:10.37,2013-10-23 05:57:00,
2013-10-23 02:02:00,39.0,36.1,29.83,ENE,68,2.3,2.3,89,0.00,CLR,,0.04,0.0,WeatherDisplay:10.37,2013-10-23 06:02:00,
2013-10-23 02:07:00,39.0,36.3,29.83,ENE,68,2.3,2.3,90,0.00,CLR,,0.04,0.0,WeatherDisplay:10.37,2013-10-23 06:07:00,
2013-10-23 02:12:00,39.0,36.6,29.83,ENE,68,1.4,1.4,91,0.00,CLR,,0.04,0.0,WeatherDisplay:10.37,2013-10-23 06:12:00,
2013-10-23 02:17:00,38.8,36.7,29.83,ESE,112,3.5,3.5,92,0.00,CLR,,0.04,0.0,WeatherDisplay:10.37,2013-10-23 06:17:00,
2013-10-23 02:22:00,38.8,37.0,29.83,ENE,68,3.5,3.5,93,0.00,CLR,,0.04,0.0,WeatherDisplay:10.37,2013-10-23 06:22:00,
2013-10-23 02:27:00,38.7,37.1,29.83,ESE,112,4.6,4.6,94,0.00,CLR,,0.04,0.0,WeatherDisplay:10.37,2013-10-23 06:27:00,
2013-10-23 02:32:00,38.7,37.1,29.83,ESE,112,3.8,3.8,94,0.00,CLR,,0.04,0.0,WeatherDisplay:10.37,2013-10-23 06:32:00,
2013-10-23 02:37:00,38.7,37.1,29.83,WNW,292,4.6,0.0,94,0.00,CLR,,0.04,0.0,WeatherDisplay:10.37,2013-10-23 06:37:00,
2013-10-23 02:42:00,38.5,36.9,29.83,ENE,68,4.0,4.0,94,0.00,CLR,,0.04,0.0,WeatherDisplay:10.37,2013-10-23 06:42:00,
2013-10-23 02:47:00,38.5,36.9,29.83,ENE,68,2.3,2.3,94,0.00,CLR,,0.04,0.0,WeatherDisplay:10.37,2013-10-23 06:47:00,
2013-10-23 02:52:00,38.5,36.9,29.83,NE,45,2.3,2.3,94,0.00,CLR,,0.04,0.0,WeatherDisplay:10.37,2013-10-23 06:52:00,
2013-10-23 02:57:00,38.5,36.9,29.83,ENE,68,2.3,2.3,94,0.00,CLR,,0.04,0.0,WeatherDisplay:10.37,2013-10-23 06:57:00,
2013-10-23 03:02:00,38.3,36.7,29.83,ENE,68,2.3,2.3,94,0.00,CLR,,0.04,0.0,WeatherDisplay:10.37,2013-10-23 07:02:00,
2013-10-23 03:07:00,38.3,36.7,29.83,NE,45,3.5,3.5,94,0.00,CLR,,0.04,0.0,WeatherDisplay:10.37,2013-10-23 07:07:00,
2013-10-23 03:12:00,38.1,36.5,29.83,ENE,68,3.5,3.5,94,0.00,CLR,,0.04,0.0,WeatherDisplay:10.37,2013-10-23 07:12:00,
2013-10-23 03:17:00,38.1,36.5,29.83,ENE,68,2.3,2.3,94,0.00,CLR,,0.04,0.0,WeatherDisplay:10.37,2013-10-23 07:17:00,
2013-10-23 03:22:00,38.1,36.8,29.83,ENE,68,3.5,3.5,95,0.00,CLR,,0.04,0.0,WeatherDisplay:10.37,2013-10-23 07:22:00,
2013-10-23 03:27:00,38.1,36.8,29.83,SSE,158,3.5,3.5,95,0.00,CLR,,0.04,0.0,WeatherDisplay:10.37,2013-10-23 07:27:00,
2013-10-23 03:32:00,38.1,36.8,29.83,ESE,112,4.6,4.6,95,0.00,CLR,,0.04,0.0,WeatherDisplay:10.37,2013-10-23 07:32:00,
2013-10-23 03:37:00,38.1,36.8,29.83,ESE,112,2.3,2.3,95,0.00,CLR,,0.04,0.0,WeatherDisplay:10.37,2013-10-23 07:37:00,
2013-10-23 03:42:00,38.1,36.8,29.83,ENE,68,3.5,3.5,95,0.04,RA,,0.08,0.0,WeatherDisplay:10.37,2013-10-23 07:42:00,
2013-10-23 03:48:00,38.1,37.1,29.80,ENE,68,3.5,3.5,96,0.04,RA,,0.08,0.0,WeatherDisplay:10.37,2013-10-23 07:48:00,
2013-10-23 03:53:00,38.1,37.1,29.80,ESE,112,3.8,3.8,96,0.04,CLR,,0.08,0.0,WeatherDisplay:10.37,2013-10-23 07:53:00,
2013-10-23 03:58:00,38.1,37.1,29.80,ENE,68,2.4,2.4,96,0.04,CLR,,0.08,0.0,WeatherDisplay:10.37,2013-10-23 07:58:00,
2013-10-23 04:03:00,38.1,37.1,29.80,ESE,112,3.5,3.5,96,0.04,CLR,,0.08,0.0,WeatherDisplay:10.37,2013-10-23 08:03:00,
2013-10-23 04:08:00,38.1,37.1,29.80,ENE,68,4.6,4.6,96,0.04,CLR,,0.08,0.0,WeatherDisplay:10.37,2013-10-23 08:08:00,
2013-10-23 04:13:00,38.1,37.1,29.80,ENE,68,4.6,4.6,96,0.04,CLR,,0.08,0.0,WeatherDisplay:10.37,2013-10-23 08:13:00,
2013-10-23 04:18:00,38.1,37.3,29.77,ENE,68,3.5,3.5,97,0.04,CLR,,0.08,0.0,WeatherDisplay:10.37,2013-10-23 08:18:00,
2013-10-23 04:23:00,38.1,37.3,29.77,ENE,68,4.6,4.6,97,0.04,CLR,,0.08,0.0,WeatherDisplay:10.37,2013-10-23 08:23:00,
2013-10-23 04:28:00,37.9,37.2,29.77,ENE,68,3.5,3.5,97,0.04,CLR,,0.08,0.0,WeatherDisplay:10.37,2013-10-23 08:28:00,
2013-10-23 04:33:00,37.9,36.9,29.77,ESE,112,4.6,4.6,96,0.04,CLR,,0.08,0.0,WeatherDisplay:10.37,2013-10-23 08:33:00,
2013-10-23 04:38:00,37.9,36.9,29.77,ESE,112,3.5,3.5,96,0.04,CLR,,0.08,0.0,WeatherDisplay:10.37,2013-10-23 08:38:00,
2013-10-23 04:43:00,37.8,36.7,29.77,East,90,3.5,3.5,96,0.00,CLR,,0.08,0.0,WeatherDisplay:10.37,2013-10-23 08:43:00,
2013-10-23 04:48:00,37.8,36.7,29.77,ENE,68,4.6,4.6,96,0.00,CLR,,0.08,0.0,WeatherDisplay:10.37,2013-10-23 08:48:00,
2013-10-23 04:53:00,37.6,36.5,29.77,ENE,68,4.6,4.6,96,0.00,CLR,,0.08,0.0,WeatherDisplay:10.37,2013-10-23 08:53:00,
2013-10-23 04:58:00,37.6,36.5,29.77,ESE,112,3.5,3.5,96,0.04,RA,,0.12,0.0,WeatherDisplay:10.37,2013-10-23 08:58:00,
2013-10-23 05:03:00,37.6,36.8,29.77,WNW,292,4.6,4.6,97,0.04,RA,,0.12,0.0,WeatherDisplay:10.37,2013-10-23 09:03:00,
2013-10-23 05:08:00,37.6,36.5,29.77,ENE,68,3.5,3.5,96,0.04,CLR,,0.12,0.0,WeatherDisplay:10.37,2013-10-23 09:08:00,
2013-10-23 05:13:00,37.6,36.5,29.77,NNW,338,3.5,3.5,96,0.04,CLR,,0.12,0.0,WeatherDisplay:10.37,2013-10-23 09:13:00,
2013-10-23 05:18:00,37.4,36.6,29.77,ESE,112,2.3,2.4,97,0.04,CLR,,0.12,0.0,WeatherDisplay:10.37,2013-10-23 09:18:00,
2013-10-23 05:23:00,37.4,36.4,29.77,ENE,68,6.2,6.2,96,0.04,CLR,,0.12,0.0,WeatherDisplay:10.37,2013-10-23 09:23:00,
2013-10-23 05:28:00,37.2,36.4,29.77,ENE,68,5.8,5.8,97,0.04,CLR,,0.16,0.0,WeatherDisplay:10.37,2013-10-23 09:28:00,
2013-10-23 05:33:00,37.0,36.3,29.77,ESE,112,4.6,4.6,97,0.08,RA,,0.16,0.0,WeatherDisplay:10.37,2013-10-23 09:33:00,
2013-10-23 05:38:00,37.0,36.3,29.77,ESE,112,6.0,6.0,97,0.08,RA,,0.16,0.0,WeatherDisplay:10.37,2013-10-23 09:38:00,
2013-10-23 05:43:00,36.9,36.1,29.77,ESE,112,3.5,3.5,97,0.08,CLR,,0.16,0.0,WeatherDisplay:10.37,2013-10-23 09:43:00,
2013-10-23 05:48:00,36.9,36.1,29.77,ESE,112,5.8,5.8,97,0.08,CLR,,0.16,0.0,WeatherDisplay:10.37,2013-10-23 09:48:00,
2013-10-23 05:53:00,36.9,36.1,29.77,East,90,4.6,4.6,97,0.12,RA,,0.20,0.0,WeatherDisplay:10.37,2013-10-23 09:53:00,
2013-10-23 05:58:00,36.7,35.9,29.77,ENE,68,3.3,3.3,97,0.08,RA,,0.20,0.0,WeatherDisplay:10.37,2013-10-23 09:58:00,
2013-10-23 06:03:00,36.7,35.9,29.77,ESE,112,3.5,3.6,97,0.08,,,0.20,0.0,WeatherDisplay:10.37,2013-10-23 10:03:00,
2013-10-23 06:08:00,36.5,35.7,29.77,ESE,112,4.6,4.6,97,0.12,RA,,0.24,0.0,WeatherDisplay:10.37,2013-10-23 10:08:00,
2013-10-23 06:13:00,36.3,35.6,29.77,ENE,68,3.5,3.5,97,0.12,RA,,0.24,0.0,WeatherDisplay:10.37,2013-10-23 10:13:00,
2013-10-23 06:18:00,36.1,35.4,29.77,East,90,4.6,4.6,97,0.12,,,0.24,0.0,WeatherDisplay:10.37,2013-10-23 10:18:00,
2013-10-23 06:23:00,36.1,35.4,29.77,ENE,68,2.3,2.6,97,0.16,RA,,0.28,0.0,WeatherDisplay:10.37,2013-10-23 10:23:00,
2013-10-23 06:28:00,36.0,35.2,29.77,ENE,68,3.5,3.5,97,0.16,RA,,0.28,0.0,WeatherDisplay:10.37,2013-10-23 10:28:00,
2013-10-23 06:33:00,36.0,35.2,29.77,ENE,68,2.3,2.3,97,0.12,CLR,,0.28,0.0,WeatherDisplay:10.37,2013-10-23 10:33:00,
2013-10-23 06:38:00,36.0,35.2,29.77,ENE,68,0.9,0.0,97,0.17,RA,,0.33,0.0,WeatherDisplay:10.37,2013-10-23 10:38:00,
2013-10-23 06:43:00,35.8,35.0,29.80,ESE,112,1.4,1.4,97,0.17,RA,,0.33,0.0,WeatherDisplay:10.37,2013-10-23 10:43:00,
2013-10-23 06:48:00,35.6,34.8,29.80,ESE,112,0.0,0.9,97,0.21,RA,,0.37,0.0,WeatherDisplay:10.37,2013-10-23 10:48:00,
2013-10-23 06:53:00,35.4,34.7,29.80,SSE,158,1.2,0.0,97,0.17,RA,,0.37,0.0,WeatherDisplay:10.37,2013-10-23 10:53:00,
2013-10-23 06:58:00,35.4,34.7,29.80,ENE,68,2.3,0.0,97,0.17,,,0.37,0.0,WeatherDisplay:10.37,2013-10-23 10:58:00,
2013-10-23 07:03:00,35.2,34.2,29.80,NNE,22,1.2,0.0,96,0.21,RA,,0.41,0.0,WeatherDisplay:10.37,2013-10-23 11:03:00,
2013-10-23 07:08:00,35.1,34.0,29.80,NNE,22,2.3,2.3,96,0.17,RA,,0.41,0.0,WeatherDisplay:10.37,2013-10-23 11:08:00,
2013-10-23 07:13:00,35.1,34.0,29.80,ENE,68,0.0,0.0,96,0.17,,,0.41,0.0,WeatherDisplay:10.37,2013-10-23 11:13:00,
2013-10-23 07:18:00,34.9,33.9,29.80,East,90,1.2,0.0,96,0.17,CLR,,0.41,0.0,WeatherDisplay:10.37,2013-10-23 11:18:00,
2013-10-23 07:23:00,34.9,33.9,29.80,NNE,22,2.3,2.3,96,0.13,CLR,,0.44,0.0,WeatherDisplay:10.37,2013-10-23 11:23:00,
2013-10-23 07:28:00,34.7,33.7,29.80,NNE,22,1.4,1.4,96,0.17,RA,,0.44,0.0,WeatherDisplay:10.37,2013-10-23 11:28:00,
2013-10-23 07:33:00,34.5,33.5,29.80,NNE,22,2.2,2.2,96,0.17,RA,,0.44,0.0,WeatherDisplay:10.37,2013-10-23 11:33:00,
2013-10-23 07:38:00,34.3,33.3,29.80,NNW,338,3.1,3.1,96,0.12,CLR,,0.44,0.0,WeatherDisplay:10.37,2013-10-23 11:38:00,
2013-10-23 07:43:00,34.3,33.3,29.80,NNE,22,2.3,2.3,96,0.17,RA,,0.50,0.0,WeatherDisplay:10.37,2013-10-23 11:43:00,
2013-10-23 07:48:00,34.3,33.6,29.80,ENE,68,2.6,2.6,97,0.13,RA,,0.50,0.0,WeatherDisplay:10.37,2013-10-23 11:48:00,
2013-10-23 07:53:00,34.2,33.4,29.80,NNE,22,2.3,2.3,97,0.13,,,0.50,0.0,WeatherDisplay:10.37,2013-10-23 11:53:00,
2013-10-23 07:58:00,34.2,33.4,29.80,NE,45,3.5,3.5,97,0.13,CLR,,0.50,0.0,WeatherDisplay:10.37,2013-10-23 11:58:00,
2013-10-23 08:03:00,34.0,33.2,29.80,NNW,338,3.5,3.5,97,0.09,CLR,,0.50,0.0,WeatherDisplay:10.37,2013-10-23 12:03:00,
2013-10-23 08:08:00,34.0,33.2,29.80,NNW,338,2.4,2.4,97,0.09,CLR,,0.50,0.0,WeatherDisplay:10.37,2013-10-23 12:08:00,
2013-10-23 08:13:00,34.0,33.2,29.80,NNW,338,2.3,2.3,97,0.09,CLR,,0.50,0.0,WeatherDisplay:10.37,2013-10-23 12:13:00,
2013-10-23 08:18:00,33.8,33.0,29.80,NNW,338,3.5,3.5,97,0.13,RA,,0.54,0.0,WeatherDisplay:10.37,2013-10-23 12:18:00,
2013-10-23 08:23:00,33.8,33.0,29.80,North,0,3.5,3.5,97,0.13,RA,,0.54,0.0,WeatherDisplay:10.37,2013-10-23 12:23:00,
2013-10-23 08:28:00,33.6,33.1,29.80,NNW,338,2.0,0.0,98,0.09,CLR,,0.54,0.0,WeatherDisplay:10.37,2013-10-23 12:28:00,
2013-10-23 08:33:00,33.6,33.1,29.80,NNW,338,3.5,3.5,98,0.09,CLR,,0.54,0.0,WeatherDisplay:10.37,2013-10-23 12:33:00,
2013-10-23 08:38:00,33.4,32.9,29.80,NNW,338,2.0,2.0,98,0.09,CLR,,0.54,0.0,WeatherDisplay:10.37,2013-10-23 12:38:00,
2013-10-23 08:43:00,33.4,32.9,29.83,NNW,338,3.5,3.5,98,0.04,CLR,,0.54,0.0,WeatherDisplay:10.37,2013-10-23 12:43:00,
2013-10-23 08:48:00,33.3,32.8,29.83,NNW,338,2.3,2.3,98,0.04,CLR,,0.54,0.0,WeatherDisplay:10.37,2013-10-23 12:48:00,
2013-10-23 08:53:00,33.3,32.8,29.83,NNE,22,3.5,3.5,98,0.04,CLR,,0.54,0.0,WeatherDisplay:10.37,2013-10-23 12:53:00,
2013-10-23 08:58:00,33.3,32.8,29.83,NNW,338,3.5,3.5,98,0.04,CLR,,0.54,0.0,WeatherDisplay:10.37,2013-10-23 12:58:00,
2013-10-23 09:03:00,33.4,32.9,29.83,North,0,2.3,0.0,98,0.04,CLR,,0.54,0.0,WeatherDisplay:10.37,2013-10-23 13:03:00,
2013-10-23 09:08:00,33.6,33.1,29.83,NNW,338,1.6,1.6,98,0.04,CLR,,0.54,0.0,WeatherDisplay:10.37,2013-10-23 13:08:00,
2013-10-23 09:13:00,33.6,33.1,29.83,NNW,338,3.1,3.1,98,0.04,CLR,,0.54,0.0,WeatherDisplay:10.37,2013-10-23 13:13:00,
2013-10-23 09:18:00,33.8,33.3,29.83,NNW,338,3.6,3.6,98,0.00,CLR,,0.54,0.0,WeatherDisplay:10.37,2013-10-23 13:18:00,
2013-10-23 09:23:00,33.8,33.3,29.83,WNW,292,4.6,4.6,98,0.00,CLR,,0.54,0.0,WeatherDisplay:10.37,2013-10-23 13:23:00,
2013-10-23 09:28:00,34.0,33.5,29.83,NNW,338,2.4,2.4,98,0.04,RA,,0.57,0.0,WeatherDisplay:10.37,2013-10-23 13:28:00,
2013-10-23 09:33:00,34.0,33.5,29.83,NNW,338,4.6,4.6,98,0.04,RA,,0.57,0.0,WeatherDisplay:10.37,2013-10-23 13:33:00,
2013-10-23 09:38:00,34.2,33.7,29.83,NNW,338,4.6,4.6,98,0.04,CLR,,0.57,100.0,WeatherDisplay:10.37,2013-10-23 13:38:00,
2013-10-23 09:43:00,34.3,33.8,29.83,NNW,338,4.3,4.3,98,0.04,CLR,,0.57,100.0,WeatherDisplay:10.37,2013-10-23 13:43:00,
2013-10-23 09:49:00,34.5,34.0,29.83,NNW,338,5.8,5.8,98,0.04,CLR,,0.57,100.0,WeatherDisplay:10.37,2013-10-23 13:49:00,
2013-10-23 09:54:00,34.7,34.2,29.83,NNE,22,4.6,4.6,98,0.04,CLR,,0.57,100.0,WeatherDisplay:10.37,2013-10-23 13:54:00,
2013-10-23 09:59:00,34.9,34.4,29.83,NNW,338,6.9,6.9,98,0.04,CLR,,0.57,200.0,WeatherDisplay:10.37,2013-10-23 13:59:00,
2013-10-23 10:04:00,35.2,34.7,29.83,NNW,338,5.8,5.8,98,0.04,CLR,,0.57,200.0,WeatherDisplay:10.37,2013-10-23 14:04:00,
2013-10-23 10:09:00,35.6,35.1,29.83,NNW,338,4.6,4.6,98,0.04,CLR,,0.57,300.0,WeatherDisplay:10.37,2013-10-23 14:09:00,
2013-10-23 10:14:00,35.8,35.3,29.83,NNE,22,8.1,8.1,98,0.04,CLR,,0.57,300.0,WeatherDisplay:10.37,2013-10-23 14:14:00,
2013-10-23 10:19:00,35.8,35.3,29.83,NNW,338,8.1,8.1,98,0.04,CLR,,0.57,300.0,WeatherDisplay:10.37,2013-10-23 14:19:00,
2013-10-23 10:24:00,36.0,35.5,29.83,NNE,22,8.1,8.1,98,0.04,CLR,,0.57,400.0,WeatherDisplay:10.37,2013-10-23 14:24:00,
2013-10-23 10:29:00,36.1,35.6,29.83,NNW,338,6.9,6.9,98,0.00,CLR,,0.57,400.0,WeatherDisplay:10.37,2013-10-23 14:29:00,
2013-10-23 10:34:00,36.7,36.2,29.83,NNW,338,5.8,5.8,98,0.00,CLR,,0.57,400.0,WeatherDisplay:10.37,2013-10-23 14:34:00,
2013-10-23 10:39:00,37.0,36.5,29.83,NNW,338,6.9,6.9,98,0.00,CLR,,0.57,600.0,WeatherDisplay:10.37,2013-10-23 14:39:00,
2013-10-23 10:44:00,38.1,37.6,29.83,NNE,22,6.9,6.9,98,0.00,CLR,,0.57,600.0,WeatherDisplay:10.37,2013-10-23 14:44:00,
2013-10-23 10:49:00,38.5,37.7,29.83,NNW,338,8.1,8.1,97,0.00,CLR,,0.57,600.0,WeatherDisplay:10.37,2013-10-23 14:49:00,
2013-10-23 10:54:00,39.6,38.5,29.83,WNW,292,3.5,4.9,96,0.00,CLR,,0.57,800.0,WeatherDisplay:10.37,2013-10-23 14:54:00,
2013-10-23 10:59:00,39.9,38.3,29.83,NNW,338,5.8,6.4,94,0.00,CLR,,0.57,700.0,WeatherDisplay:10.37,2013-10-23 14:59:00,
2013-10-23 11:04:00,39.9,37.2,29.83,NNE,22,7.8,7.8,90,0.00,CLR,,0.57,800.0,WeatherDisplay:10.37,2013-10-23 15:04:00,
2013-10-23 11:09:00,40.3,37.6,29.83,NNW,338,8.1,8.1,90,0.00,CLR,,0.57,500.0,WeatherDisplay:10.37,2013-10-23 15:09:00,
2013-10-23 11:14:00,39.7,36.5,29.83,NNW,338,8.1,8.1,88,0.00,CLR,,0.57,500.0,WeatherDisplay:10.37,2013-10-23 15:14:00,
2013-10-23 11:19:00,39.9,37.2,29.83,WNW,292,5.8,6.2,90,0.00,CLR,,0.57,400.0,WeatherDisplay:10.37,2013-10-23 15:19:00,
2013-10-23 11:24:00,39.9,36.7,29.83,NNW,338,8.1,8.1,88,0.00,CLR,,0.57,500.0,WeatherDisplay:10.37,2013-10-23 15:24:00,
2013-10-23 11:29:00,40.1,37.1,29.85,NNW,338,3.6,3.6,89,0.00,CLR,,0.57,300.0,WeatherDisplay:10.37,2013-10-23 15:29:00,
2013-10-23 11:34:00,39.9,36.9,29.85,NNW,338,6.9,6.9,89,0.00,CLR,,0.57,400.0,WeatherDisplay:10.37,2013-10-23 15:34:00,
2013-10-23 11:39:00,40.3,37.3,29.85,North,0,10.4,10.4,89,0.00,CLR,,0.57,700.0,WeatherDisplay:10.37,2013-10-23 15:39:00,
2013-10-23 11:44:00,41.0,37.7,29.83,NNW,338,8.1,8.1,88,0.00,CLR,,0.57,900.0,WeatherDisplay:10.37,2013-10-23 15:44:00,
2013-10-23 11:49:00,41.2,37.6,29.83,NNE,22,5.8,5.8,87,0.00,CLR,,0.57,800.0,WeatherDisplay:10.37,2013-10-23 15:49:00,
2013-10-23 11:54:00,41.5,38.0,29.83,NNW,338,8.1,8.1,87,0.00,CLR,,0.57,700.0,WeatherDisplay:10.37,2013-10-23 15:54:00,
2013-10-23 11:59:00,41.0,37.1,29.85,NNW,338,8.1,8.1,86,0.00,CLR,,0.57,800.0,WeatherDisplay:10.37,2013-10-23 15:59:00,
2013-10-23 12:04:00,41.2,37.0,29.85,NNW,338,8.1,8.1,85,0.00,CLR,,0.57,300.0,WeatherDisplay:10.37,2013-10-23 16:04:00,
2013-10-23 12:09:00,40.6,36.5,29.85,WNW,292,8.1,8.1,85,0.00,CLR,,0.57,400.0,WeatherDisplay:10.37,2013-10-23 16:09:00,
2013-10-23 12:14:00,40.6,35.9,29.85,WNW,292,12.7,12.7,83,0.00,CLR,,0.57,1200.0,WeatherDisplay:10.37,2013-10-23 16:14:00,
2013-10-23 12:19:00,41.4,36.6,29.85,NNW,338,15.0,15.0,83,0.00,CLR,,0.57,700.0,WeatherDisplay:10.37,2013-10-23 16:19:00,
2013-10-23 12:24:00,40.8,36.1,29.85,NNW,338,9.2,9.2,83,0.00,CLR,,0.57,300.0,WeatherDisplay:10.37,2013-10-23 16:24:00,
2013-10-23 12:29:00,41.0,36.8,29.85,WSW,248,8.1,8.1,85,0.00,CLR,,0.57,800.0,WeatherDisplay:10.37,2013-10-23 16:29:00,
2013-10-23 12:34:00,41.2,36.1,29.85,NNW,338,8.1,8.1,82,0.00,CLR,,0.57,600.0,WeatherDisplay:10.37,2013-10-23 16:34:00,
2013-10-23 12:39:00,41.4,36.0,29.85,NNW,338,9.2,9.2,81,0.00,CLR,,0.57,900.0,WeatherDisplay:10.37,2013-10-23 16:39:00,
2013-10-23 12:44:00,41.9,35.9,29.85,NNE,22,11.5,11.5,79,0.00,CLR,,0.57,1100.0,WeatherDisplay:10.37,2013-10-23 16:44:00,
2013-10-23 12:49:00,41.7,35.7,29.85,NNW,338,8.1,8.1,79,0.00,CLR,,0.57,400.0,WeatherDisplay:10.37,2013-10-23 16:49:00,
2013-10-23 12:54:00,41.5,35.8,29.85,NNW,338,5.8,5.8,80,0.00,CLR,,0.57,800.0,WeatherDisplay:10.37,2013-10-23 16:54:00,
2013-10-23 12:59:00,41.4,36.0,29.85,NNW,338,10.5,10.5,81,0.00,CLR,,0.57,700.0,WeatherDisplay:10.37,2013-10-23 16:59:00,
2013-10-23 13:04:00,41.4,36.3,29.85,NNW,338,7.4,7.4,82,0.00,CLR,,0.57,300.0,WeatherDisplay:10.37,2013-10-23 17:04:00,
2013-10-23 13:09:00,41.7,37.2,29.85,WNW,292,8.5,8.5,84,0.00,CLR,,0.57,800.0,WeatherDisplay:10.37,2013-10-23 17:09:00,
2013-10-23 13:14:00,41.9,36.8,29.88,West,270,9.2,9.2,82,0.00,CLR,,0.57,800.0,WeatherDisplay:10.37,2013-10-23 17:14:00,
2013-10-23 13:19:00,41.4,35.0,29.88,NNW,338,12.7,12.7,78,0.00,CLR,,0.57,500.0,WeatherDisplay:10.37,2013-10-23 17:19:00,
2013-10-23 13:24:00,41.2,35.2,29.88,WNW,292,11.8,11.8,79,0.00,CLR,,0.57,200.0,WeatherDisplay:10.37,2013-10-23 17:24:00,
2013-10-23 13:29:00,41.0,34.3,29.85,NNE,22,9.2,9.2,77,0.00,CLR,,0.57,500.0,WeatherDisplay:10.37,2013-10-23 17:29:00,
2013-10-23 13:34:00,41.7,35.4,29.85,NNW,338,7.6,7.6,78,0.00,CLR,,0.57,700.0,WeatherDisplay:10.37,2013-10-23 17:34:00,
2013-10-23 13:39:00,41.7,35.0,29.85,NNW,338,7.8,7.8,77,0.00,CLR,,0.57,300.0,WeatherDisplay:10.37,2013-10-23 17:39:00,
2013-10-23 13:44:00,42.3,35.6,29.85,NNW,338,10.4,10.4,77,0.00,CLR,,0.57,800.0,WeatherDisplay:10.37,2013-10-23 17:44:00,
2013-10-23 13:49:00,43.0,34.9,29.85,NNW,338,9.2,9.2,73,0.00,CLR,,0.57,1000.0,WeatherDisplay:10.37,2013-10-23 17:49:00,
2013-10-23 13:54:00,43.3,34.9,29.85,NNW,338,5.8,6.0,72,0.00,CLR,,0.57,600.0,WeatherDisplay:10.37,2013-10-23 17:54:00,
2013-10-23 13:59:00,42.8,33.7,29.85,NNW,338,11.5,11.5,70,0.00,RA,,0.57,800.0,WeatherDisplay:10.37,2013-10-23 17:59:00,
2013-10-23 14:04:00,43.0,33.9,29.85,WNW,292,12.7,12.7,70,0.00,RA,,0.57,900.0,WeatherDisplay:10.37,2013-10-23 18:04:00,
2013-10-23 14:09:00,43.5,34.4,29.85,NNW,338,12.1,12.1,70,0.00,CLR,,0.57,800.0,WeatherDisplay:10.37,2013-10-23 18:09:00,
2013-10-23 14:14:00,43.5,33.3,29.85,NNW,338,12.7,12.7,67,0.00,CLR,,0.57,400.0,WeatherDisplay:10.37,2013-10-23 18:14:00,
2013-10-23 14:19:00,43.7,33.1,29.85,NNW,338,10.4,10.4,66,0.00,CLR,,0.57,700.0,WeatherDisplay:10.37,2013-10-23 18:19:00,
2013-10-23 14:24:00,43.7,33.5,29.85,NNW,338,10.7,10.7,67,0.00,CLR,,0.57,400.0,WeatherDisplay:10.37,2013-10-23 18:24:00,
2013-10-23 14:29:00,43.5,31.8,29.85,NW,315,13.8,13.8,63,0.00,CLR,,0.57,900.0,WeatherDisplay:10.37,2013-10-23 18:29:00,
2013-10-23 14:34:00,44.1,31.1,29.85,WNW,292,15.0,15.0,60,0.00,CLR,,0.57,1000.0,WeatherDisplay:10.37,2013-10-23 18:34:00,
2013-10-23 14:39:00,44.6,31.6,29.85,NNW,338,11.5,11.5,60,0.00,CLR,,0.57,800.0,WeatherDisplay:10.37,2013-10-23 18:39:00,
2013-10-23 14:44:00,45.3,31.8,29.88,WNW,292,10.4,10.4,59,0.00,CLR,,0.57,900.0,WeatherDisplay:10.37,2013-10-23 18:44:00,
2013-10-23 14:49:00,45.3,31.8,29.88,NNW,338,12.7,12.7,59,0.00,CLR,,0.57,500.0,WeatherDisplay:10.37,2013-10-23 18:49:00,
2013-10-23 14:54:00,44.8,30.5,29.88,NNW,338,13.5,13.5,57,0.00,CLR,,0.57,500.0,WeatherDisplay:10.37,2013-10-23 18:54:00,
2013-10-23 14:59:00,44.4,30.6,29.88,WNW,292,14.7,14.7,58,0.00,CLR,,0.57,400.0,WeatherDisplay:10.37,2013-10-23 18:59:00,
2013-10-23 15:04:00,43.9,30.0,29.88,NNW,338,12.7,12.7,58,0.00,CLR,,0.57,400.0,WeatherDisplay:10.37,2013-10-23 19:04:00,
2013-10-23 15:09:00,43.5,29.7,29.88,NNW,338,13.8,13.8,58,0.00,CLR,,0.57,500.0,WeatherDisplay:10.37,2013-10-23 19:09:00,
2013-10-23 15:14:00,43.7,29.5,29.88,WNW,292,11.5,11.5,57,0.00,CLR,,0.57,800.0,WeatherDisplay:10.37,2013-10-23 19:14:00,
2013-10-23 15:19:00,44.6,29.9,29.88,NNW,338,10.4,10.4,56,0.00,CLR,,0.57,800.0,WeatherDisplay:10.37,2013-10-23 19:19:00,
2013-10-23 15:24:00,44.8,29.6,29.88,WNW,292,13.8,13.8,55,0.00,CLR,,0.57,600.0,WeatherDisplay:10.37,2013-10-23 19:24:00,
2013-10-23 15:29:00,45.3,30.5,29.88,WNW,292,10.4,10.4,56,0.00,CLR,,0.57,500.0,WeatherDisplay:10.37,2013-10-23 19:29:00,
2013-10-23 15:34:00,45.0,30.2,29.88,WNW,292,10.2,10.2,56,0.00,CLR,,0.57,700.0,WeatherDisplay:10.37,2013-10-23 19:34:00,
2013-10-23 15:39:00,45.5,30.3,29.88,NNW,338,10.5,10.5,55,0.00,CLR,,0.57,700.0,WeatherDisplay:10.37,2013-10-23 19:39:00,
2013-10-23 15:44:00,47.5,31.6,29.88,NNW,338,6.9,6.9,54,0.00,CLR,,0.57,800.0,WeatherDisplay:10.37,2013-10-23 19:44:00,
2013-10-23 15:49:00,48.0,31.2,29.88,WNW,292,10.5,10.5,52,0.00,CLR,,0.57,700.0,WeatherDisplay:10.37,2013-10-23 19:49:00,
2013-10-23 15:54:00,46.9,29.7,29.88,WSW,248,12.7,12.7,51,0.00,CLR,,0.57,600.0,WeatherDisplay:10.37,2013-10-23 19:54:00,
2013-10-23 15:59:00,46.9,30.2,29.88,NNW,338,13.2,13.2,52,0.00,CLR,,0.57,500.0,WeatherDisplay:10.37,2013-10-23 19:59:00,
2013-10-23 16:04:00,46.0,29.4,29.88,WNW,292,11.5,11.5,52,0.00,CLR,,0.57,500.0,WeatherDisplay:10.37,2013-10-23 20:04:00,
2013-10-23 16:09:00,45.3,29.2,29.88,NNW,338,10.4,10.4,53,0.00,FEW,,0.57,400.0,WeatherDisplay:10.37,2013-10-23 20:09:00,
2013-10-23 16:15:00,44.8,28.7,29.88,NNW,338,11.5,11.5,53,0.00,FEW,,0.57,400.0,WeatherDisplay:10.37,2013-10-23 20:15:00,
2013-10-23 16:20:00,44.4,28.8,29.88,NNW,338,10.4,10.4,54,0.00,FEW,,0.57,400.0,WeatherDisplay:10.37,2013-10-23 20:20:00,
2013-10-23 16:25:00,44.1,28.5,29.88,WNW,292,6.9,6.9,54,0.00,SCT,,0.57,300.0,WeatherDisplay:10.37,2013-10-23 20:25:00,
2013-10-23 16:30:00,43.9,28.7,29.88,WNW,292,5.9,6.0,55,0.00,SCT,,0.57,300.0,WeatherDisplay:10.37,2013-10-23 20:30:00,
2013-10-23 16:35:00,43.7,28.6,29.88,WNW,292,11.5,11.5,55,0.00,SCT,,0.57,300.0,WeatherDisplay:10.37,2013-10-23 20:35:00,
2013-10-23 16:40:00,43.7,29.0,29.88,NNW,338,6.9,6.9,56,0.00,BKN,,0.57,200.0,WeatherDisplay:10.37,2013-10-23 20:40:00,
2013-10-23 16:45:00,43.8,29.1,29.91,NW,308,6.0,11.0,56,0.00,BKN,,0.57,200.0,WeatherDisplay:10.37,2013-10-23 20:45:00,
2013-10-23 16:50:00,43.9,28.7,29.91,West,270,11.5,11.5,55,0.00,BKN,,0.57,200.0,WeatherDisplay:10.37,2013-10-23 20:50:00,
2013-10-23 16:55:00,43.5,28.0,29.91,WNW,292,12.7,12.7,54,0.00,BKN,,0.57,100.0,WeatherDisplay:10.37,2013-10-23 20:55:00,
2013-10-23 17:00:00,43.6,28.5,29.91,NW,309,6.0,12.0,55,0.00,BKN,,0.57,100.0,WeatherDisplay:10.37,2013-10-23 21:00:00,
2013-10-23 17:05:00,43.5,28.4,29.91,WNW,292,8.1,8.1,55,0.00,BKN,,0.57,100.0,WeatherDisplay:10.37,2013-10-23 21:05:00,
2013-10-23 17:10:00,43.9,28.7,29.91,NW,310,5.0,10.0,55,0.00,BKN,,0.57,200.0,WeatherDisplay:10.37,2013-10-23 21:10:00,
2013-10-23 17:15:00,43.9,28.7,29.91,NNW,338,6.4,6.4,55,0.00,BKN,,0.57,200.0,WeatherDisplay:10.37,2013-10-23 21:15:00,
2013-10-23 17:20:00,44.4,29.7,29.91,WNW,292,8.1,8.1,56,0.00,BKN,,0.57,200.0,WeatherDisplay:10.37,2013-10-23 21:20:00,
2013-10-23 17:25:00,45.5,30.7,29.91,WNW,292,6.0,10.0,56,0.00,BKN,,0.57,200.0,WeatherDisplay:10.37,2013-10-23 21:25:00,
2013-10-23 17:30:00,44.8,30.1,29.91,WNW,289,5.0,11.0,56,0.00,BKN,,0.57,100.0,WeatherDisplay:10.37,2013-10-23 21:30:00,
2013-10-23 17:35:00,44.1,29.8,29.91,WNW,292,5.8,5.8,57,0.00,BKN,,0.57,100.0,WeatherDisplay:10.37,2013-10-23 21:35:00,
2013-10-23 17:40:00,43.9,29.6,29.91,West,272,6.0,8.0,57,0.00,BKN,,0.57,100.0,WeatherDisplay:10.37,2013-10-23 21:40:00,
2013-10-23 17:45:00,43.5,29.7,29.91,WSW,248,6.4,6.4,58,0.00,BKN,,0.57,100.0,WeatherDisplay:10.37,2013-10-23 21:45:00,
2013-10-23 17:50:00,43.0,29.2,29.91,WNW,292,7.6,7.6,58,0.00,BKN,,0.57,100.0,WeatherDisplay:10.37,2013-10-23 21:50:00,
2013-10-23 17:55:00,42.6,29.7,29.91,WNW,285,3.0,8.0,60,0.00,BKN,,0.57,100.0,WeatherDisplay:10.37,2013-10-23 21:55:00,
2013-10-23 18:00:00,42.4,29.5,29.91,WNW,292,3.5,3.5,60,0.00,CLR,,0.57,0.0,WeatherDisplay:10.37,2013-10-23 22:00:00,
2013-10-23 18:05:00,42.3,29.8,29.91,WNW,292,4.0,4.0,61,0.00,CLR,,0.57,0.0,WeatherDisplay:10.37,2013-10-23 22:05:00,
2013-10-23 18:10:00,42.3,30.2,29.91,NW,309,3.0,6.0,62,0.00,CLR,,0.57,0.0,WeatherDisplay:10.37,2013-10-23 22:10:00,
2013-10-23 18:15:00,41.5,30.3,29.91,WNW,292,8.1,8.1,64,0.00,CLR,,0.57,0.0,WeatherDisplay:10.37,2013-10-23 22:15:00,
2013-10-23 18:20:00,40.4,30.3,29.91,NW,313,2.0,10.0,67,0.04,RA,,0.61,0.0,WeatherDisplay:10.37,2013-10-23 22:20:00,
2013-10-23 18:25:00,39.9,30.6,29.91,NW,305,5.0,6.0,69,0.00,RA,,0.61,0.0,WeatherDisplay:10.37,2013-10-23 22:25:00,
2013-10-23 18:30:00,39.7,31.4,29.94,WNW,292,5.8,5.8,72,0.04,RA,,0.61,0.0,WeatherDisplay:10.37,2013-10-23 22:30:00,
2013-10-23 18:35:00,39.7,32.1,29.94,WNW,292,5.8,5.8,74,0.04,CLR,,0.61,0.0,WeatherDisplay:10.37,2013-10-23 22:35:00,
2013-10-23 18:40:00,39.9,33.3,29.94,WNW,298,8.0,14.0,77,0.00,CLR,,0.61,0.0,WeatherDisplay:10.37,2013-10-23 22:40:00,
2013-10-23 18:45:00,39.6,33.6,29.91,WSW,248,12.7,12.7,79,0.04,CLR,,0.61,0.0,WeatherDisplay:10.37,2013-10-23 22:45:00,
2013-10-23 18:50:00,38.8,33.8,29.91,West,270,19.6,19.6,82,0.04,CLR,,0.61,0.0,WeatherDisplay:10.37,2013-10-23 22:50:00,
2013-10-23 18:55:00,38.5,34.1,29.91,WSW,248,10.4,10.4,84,0.04,CLR,,0.61,0.0,WeatherDisplay:10.37,2013-10-23 22:55:00,
2013-10-23 19:00:00,38.1,33.7,29.91,WNW,292,6.0,6.0,84,0.04,CLR,,0.61,0.0,WeatherDisplay:10.37,2013-10-23 23:00:00,
2013-10-23 19:05:00,38.1,33.7,29.91,West,271,7.0,11.0,84,0.00,CLR,,0.61,0.0,WeatherDisplay:10.37,2013-10-23 23:05:00,
2013-10-23 19:10:00,38.5,33.2,29.91,WSW,248,12.7,12.7,81,0.04,CLR,,0.61,0.0,WeatherDisplay:10.37,2013-10-23 23:10:00,
2013-10-23 19:15:00,38.5,33.5,29.94,WNW,292,11.5,11.5,82,0.04,CLR,,0.61,0.0,WeatherDisplay:10.37,2013-10-23 23:15:00,
2013-10-23 19:20:00,38.5,34.1,29.94,WNW,284,6.0,9.0,84,0.00,CLR,,0.61,0.0,WeatherDisplay:10.37,2013-10-23 23:20:00,
2013-10-23 19:25:00,38.3,34.2,29.94,WNW,292,8.1,8.1,85,0.00,CLR,,0.61,0.0,WeatherDisplay:10.37,2013-10-23 23:25:00,
2013-10-23 19:30:00,38.3,34.5,29.94,WNW,299,8.0,10.0,86,0.00,CLR,,0.61,0.0,WeatherDisplay:10.37,2013-10-23 23:30:00,
2013-10-23 19:35:00,38.3,34.8,29.94,WNW,292,6.0,12.0,87,0.00,CLR,,0.61,0.0,WeatherDisplay:10.37,2013-10-23 23:35:00,
2013-10-23 19:40:00,38.3,35.1,29.94,WSW,248,9.2,9.2,88,0.00,CLR,,0.61,0.0,WeatherDisplay:10.37,2013-10-23 23:40:00,
2013-10-23 19:45:00,38.3,35.1,29.94,NNW,338,8.1,8.1,88,0.00,CLR,,0.61,0.0,WeatherDisplay:10.37,2013-10-23 23:45:00,
2013-10-23 19:50:00,38.3,35.3,29.94,WNW,292,10.4,10.4,89,0.00,CLR,,0.61,0.0,WeatherDisplay:10.37,2013-10-23 23:50:00,
2013-10-23 19:55:00,38.5,35.5,29.94,WNW,295,6.0,9.0,89,0.00,CLR,,0.61,0.0,WeatherDisplay:10.37,2013-10-23 23:55:00,
2013-10-23 20:00:00,38.4,35.7,29.94,WNW,299,6.0,9.0,90,0.00,CLR,,0.61,0.0,WeatherDisplay:10.37,2013-10-24 00:00:00,
2013-10-23 20:05:00,38.5,35.8,29.94,WNW,292,9.8,9.8,90,0.00,CLR,,0.61,0.0,WeatherDisplay:10.37,2013-10-24 00:05:00,
2013-10-23 20:10:00,38.5,35.8,29.94,NNW,338,5.8,5.8,90,0.00,CLR,,0.61,0.0,WeatherDisplay:10.37,2013-10-24 00:10:00,
2013-10-23 20:15:00,38.5,35.8,29.94,WNW,290,6.0,10.0,90,0.00,CLR,,0.61,0.0,WeatherDisplay:10.37,2013-10-24 00:15:00,
2013-10-23 20:20:00,38.7,36.0,29.94,WNW,292,4.6,4.6,90,0.00,CLR,,0.61,0.0,WeatherDisplay:10.37,2013-10-24 00:20:00,
2013-10-23 20:25:00,38.5,35.8,29.94,WNW,284,7.0,9.0,90,0.00,CLR,,0.61,0.0,WeatherDisplay:10.37,2013-10-24 00:25:00,
2013-10-23 20:30:00,38.7,36.0,29.94,WNW,285,7.0,10.0,90,0.00,CLR,,0.61,0.0,WeatherDisplay:10.37,2013-10-24 00:30:00,
2013-10-23 20:35:00,38.7,36.0,29.94,NNW,338,5.8,5.8,90,0.00,CLR,,0.61,0.0,WeatherDisplay:10.37,2013-10-24 00:35:00,
2013-10-23 20:40:00,38.7,36.0,29.94,WNW,299,8.0,10.0,90,0.00,CLR,,0.61,0.0,WeatherDisplay:10.37,2013-10-24 00:40:00,
2013-10-23 20:45:00,38.7,35.7,29.94,NNW,338,5.8,5.8,89,0.00,CLR,,0.61,0.0,WeatherDisplay:10.37,2013-10-24 00:45:00,
2013-10-23 20:50:00,38.5,35.5,29.94,WNW,292,8.1,8.1,89,0.00,CLR,,0.61,0.0,WeatherDisplay:10.37,2013-10-24 00:50:00,
2013-10-23 20:55:00,38.3,35.1,29.94,WNW,302,6.0,8.0,88,0.00,CLR,,0.61,0.0,WeatherDisplay:10.37,2013-10-24 00:55:00,
2013-10-23 21:00:00,38.1,35.2,29.97,WNW,292,4.6,4.7,89,0.00,CLR,,0.61,0.0,WeatherDisplay:10.37,2013-10-24 01:00:00,
2013-10-23 21:05:00,37.8,35.1,29.97,WNW,292,5.9,5.9,90,0.00,CLR,,0.61,0.0,WeatherDisplay:10.37,2013-10-24 01:05:00,
2013-10-23 21:10:00,37.6,35.2,29.97,West,278,5.0,7.0,91,0.00,CLR,,0.61,0.0,WeatherDisplay:10.37,2013-10-24 01:10:00,
2013-10-23 21:15:00,37.4,35.3,29.97,WNW,290,5.0,8.0,92,0.00,CLR,,0.61,0.0,WeatherDisplay:10.37,2013-10-24 01:15:00,
2013-10-23 21:20:00,37.4,35.3,29.97,WNW,287,3.0,9.0,92,0.00,CLR,,0.61,0.0,WeatherDisplay:10.37,2013-10-24 01:20:00,
2013-10-23 21:25:00,37.4,35.3,29.97,WNW,289,3.0,9.0,92,0.00,CLR,,0.61,0.0,WeatherDisplay:10.37,2013-10-24 01:25:00,
2013-10-23 21:30:00,37.4,35.3,29.97,NNW,338,5.8,5.8,92,0.00,CLR,,0.61,0.0,WeatherDisplay:10.37,2013-10-24 01:30:00,
2013-10-23 21:35:00,37.4,35.3,29.97,WNW,300,3.0,6.0,92,0.00,CLR,,0.61,0.0,WeatherDisplay:10.37,2013-10-24 01:35:00,
2013-10-23 21:40:00,37.4,35.3,29.97,NNW,338,3.8,5.4,92,0.00,CLR,,0.61,0.0,WeatherDisplay:10.37,2013-10-24 01:40:00,
2013-10-23 21:45:00,37.2,34.8,29.97,WNW,292,5.9,5.9,91,0.00,CLR,,0.61,0.0,WeatherDisplay:10.37,2013-10-24 01:45:00,
2013-10-23 21:50:00,37.0,34.7,29.97,WNW,291,5.0,6.0,91,0.00,CLR,,0.61,0.0,WeatherDisplay:10.37,2013-10-24 01:50:00,
2013-10-23 21:55:00,37.0,34.9,29.97,WNW,290,5.0,8.0,92,0.00,CLR,,0.61,0.0,WeatherDisplay:10.37,2013-10-24 01:55:00,
2013-10-23 22:00:00,37.0,34.9,29.97,WNW,292,8.1,8.1,92,0.00,CLR,,0.61,0.0,WeatherDisplay:10.37,2013-10-24 02:00:00,
2013-10-23 22:05:00,37.0,35.2,29.97,WNW,284,5.0,9.0,93,0.00,CLR,,0.61,0.0,WeatherDisplay:10.37,2013-10-24 02:05:00,
2013-10-23 22:10:00,37.0,35.2,29.97,West,270,4.9,4.9,93,0.00,CLR,,0.61,0.0,WeatherDisplay:10.37,2013-10-24 02:10:00,
2013-10-23 22:15:00,37.0,35.2,29.97,SW,225,5.8,5.8,93,0.00,CLR,,0.61,0.0,WeatherDisplay:10.37,2013-10-24 02:15:00,
2013-10-23 22:20:00,37.0,34.9,29.97,West,274,3.0,6.0,92,0.00,CLR,,0.61,0.0,WeatherDisplay:10.37,2013-10-24 02:20:00,
2013-10-23 22:25:00,36.9,34.8,29.97,WNW,289,3.0,5.0,92,0.00,CLR,,0.61,0.0,WeatherDisplay:10.37,2013-10-24 02:25:00,
2013-10-23 22:30:00,36.8,34.7,29.97,WNW,295,5.0,6.0,92,0.00,CLR,,0.61,0.0,WeatherDisplay:10.37,2013-10-24 02:30:00,
2013-10-23 22:35:00,36.5,34.1,29.97,WNW,282,2.0,6.0,91,0.00,CLR,,0.61,0.0,WeatherDisplay:10.37,2013-10-24 02:35:00,
2013-10-23 22:40:00,36.3,33.9,29.97,WSW,248,4.0,4.0,91,0.00,CLR,,0.61,0.0,WeatherDisplay:10.37,2013-10-24 02:40:00,
2013-10-23 22:45:00,36.1,34.0,29.97,WNW,282,3.0,5.0,92,0.00,CLR,,0.61,0.0,WeatherDisplay:10.37,2013-10-24 02:45:00,
2013-10-23 22:50:00,36.1,34.3,29.97,WSW,248,3.5,3.5,93,0.00,CLR,,0.61,0.0,WeatherDisplay:10.37,2013-10-24 02:50:00,
2013-10-23 22:55:00,36.0,34.1,29.97,WNW,292,4.9,4.9,93,0.00,CLR,,0.61,0.0,WeatherDisplay:10.37,2013-10-24 02:55:00,
2013-10-23 23:00:00,36.0,34.4,29.97,WNW,290,3.0,5.0,94,0.00,CLR,,0.61,0.0,WeatherDisplay:10.37,2013-10-24 03:00:00,
2013-10-23 23:05:00,35.8,34.2,29.97,WNW,296,3.0,6.0,94,0.00,CLR,,0.61,0.0,WeatherDisplay:10.37,2013-10-24 03:05:00,
2013-10-23 23:10:00,35.6,33.8,29.97,WNW,292,5.8,5.8,93,0.00,CLR,,0.61,0.0,WeatherDisplay:10.37,2013-10-24 03:10:00,
2013-10-23 23:15:00,35.4,33.6,29.97,WNW,293,2.0,4.0,93,0.00,CLR,,0.61,0.0,WeatherDisplay:10.37,2013-10-24 03:15:00,
2013-10-23 23:20:00,35.4,33.6,29.97,WNW,282,2.0,5.0,93,0.00,CLR,,0.61,0.0,WeatherDisplay:10.37,2013-10-24 03:20:00,
2013-10-23 23:25:00,35.2,33.7,29.97,WNW,292,4.6,4.6,94,0.00,CLR,,0.61,0.0,WeatherDisplay:10.37,2013-10-24 03:25:00,
2013-10-23 23:30:00,35.2,33.6,29.97,West,277,3.0,6.0,94,0.00,CLR,,0.61,0.0,WeatherDisplay:10.37,2013-10-24 03:30:00,
2013-10-23 23:35:00,35.1,33.5,29.97,West,270,4.6,4.6,94,0.00,CLR,,0.61,0.0,WeatherDisplay:10.37,2013-10-24 03:35:00,
2013-10-23 23:40:00,35.1,33.5,29.97,West,265,3.0,5.0,94,0.00,CLR,,0.61,0.0,WeatherDisplay:10.37,2013-10-24 03:40:00,
2013-10-23 23:45:00,35.2,33.9,29.97,West,273,3.0,6.0,95,0.00,CLR,,0.61,0.0,WeatherDisplay:10.37,2013-10-24 03:45:00,
2013-10-23 23:50:00,35.1,33.8,29.97,West,270,3.3,3.3,95,0.00,CLR,,0.61,0.0,WeatherDisplay:10.37,2013-10-24 03:50:00,
2013-10-23 23:55:00,35.1,33.8,29.97,West,272,2.0,4.0,95,0.00,CLR,,0.61,0.0,WeatherDisplay:10.37,2013-10-24 03:55:00,